createdAt,value
2023-11-07T14:31:00.308Z,71.10
2023-11-07T14:33:31.848Z,71.20
2023-11-07T14:36:01.551Z,71.24
2023-11-07T14:38:35.298Z,71.10
2023-11-07T14:41:08.878Z,71.14
2023-11-07T14:43:38.103Z,71.25
2023-11-07T14:46:07.004Z,71.55
2023-11-07T14:48:35.794Z,71.46
2023-11-07T14:51:04.578Z,71.59
2023-11-07T14:53:32.882Z,71.68
2023-11-07T14:56:01.046Z,71.80
2023-11-07T14:58:29.182Z,72.00
2023-11-07T15:00:58.066Z,71.98
2023-11-07T15:03:26.551Z,71.96
2023-11-07T15:05:55.581Z,72.03
2023-11-07T15:08:23.880Z,72.07
2023-11-07T15:10:52.075Z,72.10
2023-11-07T15:13:20.260Z,72.11
2023-11-07T15:15:49.314Z,72.11
2023-11-07T15:18:18.732Z,72.09
2023-11-07T15:20:49.253Z,72.36
2023-11-07T15:23:17.404Z,72.18
2023-11-07T15:25:46.010Z,72.06
2023-11-07T15:28:15.231Z,72.17
2023-11-07T15:30:43.604Z,72.35
2023-11-07T15:33:12.997Z,72.29
2023-11-07T15:35:42.973Z,72.34
2023-11-07T15:38:11.408Z,72.43
2023-11-07T15:40:40.996Z,72.35
2023-11-07T15:43:09.903Z,72.35
2023-11-07T15:45:38.573Z,72.38
2023-11-07T15:48:11.254Z,72.43
2023-11-07T15:50:40.959Z,72.41
2023-11-07T15:53:10.283Z,72.62
2023-11-07T15:55:43.025Z,72.55
2023-11-07T15:58:11.972Z,72.44
2023-11-07T16:00:40.792Z,72.29
2023-11-07T16:03:09.693Z,72.15
2023-11-07T16:05:39.106Z,72.15
2023-11-07T16:08:08.812Z,72.10
2023-11-07T16:10:37.862Z,72.22
2023-11-07T16:13:06.789Z,72.25
2023-11-07T16:15:35.513Z,72.25
2023-11-07T16:18:06.253Z,72.24
2023-11-07T16:20:34.779Z,72.26
2023-11-07T16:23:04.384Z,72.30
2023-11-07T16:25:33.067Z,72.36
2023-11-07T16:28:03.977Z,72.31
2023-11-07T16:30:33.923Z,72.35
2023-11-07T16:33:02.440Z,72.39
2023-11-07T16:35:30.711Z,72.42
2023-11-07T16:37:58.947Z,72.63
2023-11-07T16:40:27.167Z,72.76
2023-11-07T16:42:55.701Z,72.93
2023-11-07T16:45:24.742Z,72.93
2023-11-07T16:47:53.042Z,73.23
2023-11-07T16:50:21.925Z,73.33
2023-11-07T16:52:50.610Z,73.38
2023-11-07T16:55:18.761Z,73.71
2023-11-07T16:57:46.998Z,73.88
2023-11-07T17:00:19.319Z,73.93
2023-11-07T17:02:49.045Z,74.23
2023-11-07T17:05:19.174Z,74.16
2023-11-07T17:07:48.125Z,74.34
2023-11-07T17:10:16.794Z,74.55
2023-11-07T17:12:45.173Z,74.81
2023-11-07T17:15:14.023Z,74.91
2023-11-07T17:17:45.682Z,75.15
2023-11-07T17:20:14.251Z,75.33
2023-11-07T17:22:42.786Z,75.67
2023-11-07T17:25:11.127Z,75.61
2023-11-07T17:27:40.896Z,75.90
2023-11-07T17:30:09.483Z,75.93
2023-11-07T17:32:39.126Z,76.06
2023-11-07T17:35:08.433Z,76.31
2023-11-07T17:37:44.614Z,76.23
2023-11-07T17:40:13.123Z,76.31
2023-11-07T17:42:41.601Z,76.33
2023-11-07T17:45:11.092Z,76.38
2023-11-07T17:47:39.891Z,76.64
2023-11-07T17:50:09.696Z,76.63
2023-11-07T17:52:38.268Z,76.64
2023-11-07T17:55:07.429Z,76.68
2023-11-07T17:57:36.599Z,76.90
2023-11-07T18:00:06.090Z,77.02
2023-11-07T18:02:40.941Z,77.02
2023-11-07T18:05:11.388Z,77.04
2023-11-07T18:07:40.273Z,77.03
2023-11-07T18:10:12.134Z,77.21
2023-11-07T18:12:40.507Z,77.26
2023-11-07T18:15:09.533Z,77.24
2023-11-07T18:17:38.114Z,77.40
2023-11-07T18:20:09.492Z,77.49
2023-11-07T18:22:39.987Z,77.43
2023-11-07T18:25:09.775Z,77.54
2023-11-07T18:27:39.367Z,77.40
2023-11-07T18:30:08.847Z,77.53
2023-11-07T18:32:37.127Z,77.68
2023-11-07T18:35:05.887Z,77.79
2023-11-07T18:37:34.735Z,77.70
2023-11-07T18:40:03.775Z,78.00
2023-11-07T18:42:32.015Z,77.90
2023-11-07T18:45:01.180Z,78.03
2023-11-07T18:47:29.426Z,78.11
2023-11-07T18:50:00.538Z,78.17
2023-11-07T18:52:32.286Z,78.22
2023-11-07T18:55:01.121Z,78.09
2023-11-07T18:57:29.362Z,78.25
2023-11-07T18:59:57.601Z,78.24
2023-11-07T19:02:25.953Z,78.22
2023-11-07T19:04:54.848Z,78.57
2023-11-07T19:07:23.209Z,78.60
2023-11-07T19:09:52.063Z,78.67
2023-11-07T19:12:20.503Z,78.73
2023-11-07T19:14:49.439Z,78.69
2023-11-07T19:17:17.704Z,78.57
2023-11-07T19:19:46.021Z,78.65
2023-11-07T19:22:14.195Z,78.74
2023-11-07T19:24:42.423Z,78.44
2023-11-07T19:27:12.032Z,78.16
2023-11-07T19:29:40.293Z,78.25
2023-11-07T19:32:08.746Z,78.11
2023-11-07T19:34:37.006Z,78.15
2023-11-07T19:37:06.203Z,78.19
2023-11-07T19:39:35.823Z,78.13
2023-11-07T19:42:05.211Z,77.99
2023-11-07T19:44:37.280Z,78.18
2023-11-07T19:47:06.414Z,78.09
2023-11-07T19:49:34.819Z,77.89
2023-11-07T19:52:03.934Z,77.67
2023-11-07T19:54:32.961Z,77.59
2023-11-07T19:57:01.612Z,77.58
2023-11-07T19:59:29.866Z,77.31
2023-11-07T20:01:59.038Z,77.24
2023-11-07T20:04:27.305Z,77.16
2023-11-07T20:06:55.629Z,77.06
2023-11-07T20:09:23.847Z,77.10
2023-11-07T20:11:52.000Z,77.17
2023-11-07T20:14:20.281Z,77.07
2023-11-07T20:16:48.519Z,76.83
2023-11-07T20:19:16.939Z,76.73
2023-11-07T20:21:45.734Z,76.72
2023-11-07T20:24:14.182Z,76.48
2023-11-07T20:26:42.432Z,76.69
2023-11-07T20:29:10.586Z,76.50
2023-11-07T20:31:38.751Z,76.46
2023-11-07T20:34:07.055Z,76.47
2023-11-07T20:36:35.623Z,76.37
2023-11-07T20:39:06.708Z,76.26
2023-11-07T20:41:37.531Z,76.32
2023-11-07T20:44:07.621Z,76.28
2023-11-07T20:46:36.726Z,76.19
2023-11-07T20:49:06.729Z,76.37
2023-11-07T20:51:36.568Z,76.60
2023-11-07T20:54:05.593Z,76.53
2023-11-07T20:56:34.698Z,76.38
2023-11-07T20:59:04.348Z,76.43
2023-11-07T21:01:33.580Z,76.41
2023-11-07T21:04:02.645Z,76.38
2023-11-07T21:06:31.061Z,76.50
2023-11-07T21:08:59.966Z,76.51
2023-11-07T21:11:28.223Z,76.72
2023-11-07T21:13:57.129Z,76.67
2023-11-07T21:16:25.368Z,76.53
2023-11-07T21:18:55.758Z,76.57
2023-11-07T21:21:24.328Z,76.39
2023-11-07T21:23:53.352Z,76.32
2023-11-07T21:26:24.518Z,76.31
2023-11-07T21:28:53.694Z,76.15
2023-11-07T21:31:22.150Z,76.11
2023-11-07T21:33:51.139Z,76.13
2023-11-07T21:36:19.617Z,76.23
2023-11-07T21:38:48.595Z,76.32
2023-11-07T21:41:16.806Z,76.38
2023-11-07T21:43:46.748Z,76.50
2023-11-07T21:46:15.653Z,76.31
2023-11-07T21:48:46.647Z,76.40
2023-11-07T21:51:15.896Z,76.39
2023-11-07T21:53:44.076Z,76.46
2023-11-07T21:56:14.410Z,76.62
2023-11-07T21:58:43.155Z,76.57
2023-11-07T22:01:12.191Z,76.60
2023-11-07T22:03:40.402Z,76.56
2023-11-07T22:06:08.629Z,76.39
2023-11-07T22:08:36.873Z,76.60
2023-11-07T22:11:07.546Z,76.64
2023-11-07T22:13:39.330Z,76.68
2023-11-07T22:16:07.545Z,76.78
2023-11-07T22:18:35.901Z,77.02
2023-11-07T22:21:05.035Z,77.19
2023-11-07T22:23:34.418Z,77.09
2023-11-07T22:26:02.600Z,77.20
2023-11-07T22:28:30.817Z,77.19
2023-11-07T22:31:00.332Z,77.34
2023-11-07T22:33:28.789Z,77.56
2023-11-07T22:35:56.980Z,77.69
2023-11-07T22:38:27.533Z,77.63
2023-11-07T22:40:56.232Z,77.94
2023-11-07T22:43:24.411Z,78.05
2023-11-07T22:45:52.532Z,78.05
2023-11-07T22:48:22.008Z,78.20
2023-11-07T22:50:50.479Z,78.10
2023-11-07T22:53:19.843Z,78.40
2023-11-07T22:55:48.668Z,78.43
2023-11-07T22:58:16.826Z,78.44
2023-11-07T23:00:49.657Z,78.58
2023-11-07T23:03:17.924Z,78.80
2023-11-07T23:05:46.370Z,79.17
2023-11-07T23:08:14.801Z,79.15
2023-11-07T23:10:43.769Z,79.19
2023-11-07T23:13:12.184Z,79.35
2023-11-07T23:15:40.475Z,79.51
2023-11-07T23:18:09.411Z,79.63
2023-11-07T23:20:41.580Z,79.69
2023-11-07T23:23:10.755Z,80.18
2023-11-07T23:25:42.494Z,80.31
2023-11-07T23:28:11.961Z,80.09
2023-11-07T23:30:40.240Z,80.16
2023-11-07T23:33:08.637Z,80.02
2023-11-07T23:35:36.986Z,80.00
2023-11-07T23:38:05.202Z,80.50
2023-11-07T23:40:36.985Z,80.30
2023-11-07T23:43:05.241Z,80.45
2023-11-07T23:45:33.811Z,80.56
2023-11-07T23:48:02.425Z,80.53
2023-11-07T23:50:30.633Z,80.67
2023-11-07T23:52:58.750Z,80.78
2023-11-07T23:55:26.976Z,80.66
2023-11-07T23:57:55.625Z,80.81
